createdAt,value
2022-09-01T00:04:25.319Z,63.34
2022-09-01T00:09:27.635Z,63.46
2022-09-01T00:14:32.828Z,63.47
2022-09-01T00:19:36.738Z,63.61
2022-09-01T00:24:38.826Z,63.47
2022-09-01T00:29:44.100Z,63.02
2022-09-01T00:34:47.772Z,62.88
2022-09-01T00:39:49.806Z,62.56
2022-09-01T00:44:52.101Z,61.57
2022-09-01T00:49:55.732Z,60.75
2022-09-01T00:55:00.463Z,60.39
2022-09-01T01:00:08.227Z,59.73
2022-09-01T01:05:15.103Z,59.23
2022-09-01T01:10:22.060Z,59.61
2022-09-01T01:15:24.277Z,58.96
2022-09-01T01:20:29.936Z,58.52
2022-09-01T01:25:37.329Z,58.33
2022-09-01T01:30:42.010Z,59.07
2022-09-01T01:35:44.271Z,58.49
2022-09-01T01:40:47.872Z,58.78
2022-09-01T01:45:53.066Z,58.41
2022-09-01T01:50:56.169Z,58.70
2022-09-01T01:56:01.076Z,58.30
2022-09-01T02:01:03.250Z,58.30
2022-09-01T02:06:08.123Z,58.92
2022-09-01T02:11:11.916Z,58.63
2022-09-01T02:16:14.452Z,59.01
2022-09-01T02:21:19.894Z,59.44
2022-09-01T02:26:23.446Z,60.21
2022-09-01T02:31:25.485Z,60.58
2022-09-01T02:36:27.483Z,61.45
2022-09-01T02:41:30.973Z,62.74
2022-09-01T02:46:33.063Z,62.83
2022-09-01T02:51:34.707Z,64.05
2022-09-01T02:56:37.805Z,64.02
2022-09-01T03:01:40.572Z,63.95
2022-09-01T03:06:43.044Z,64.28
2022-09-01T03:11:48.616Z,65.00
2022-09-01T03:16:51.046Z,66.41
2022-09-01T03:21:52.838Z,65.82
2022-09-01T03:26:58.988Z,66.62
2022-09-01T03:32:00.779Z,67.14
2022-09-01T03:37:03.069Z,68.54
2022-09-01T03:42:07.217Z,69.17
2022-09-01T03:47:09.353Z,70.92
2022-09-01T03:52:11.442Z,72.08
2022-09-01T03:57:15.082Z,73.43
2022-09-01T04:02:17.819Z,74.15
2022-09-01T04:07:19.570Z,74.78
2022-09-01T04:12:22.880Z,76.41
2022-09-01T04:17:29.911Z,76.72
2022-09-01T04:22:32.282Z,77.05
2022-09-01T04:27:35.425Z,77.63
2022-09-01T04:32:37.225Z,78.66
2022-09-01T04:37:38.961Z,79.39
2022-09-01T04:42:42.156Z,79.66
2022-09-01T04:47:43.860Z,79.69
2022-09-01T04:52:46.634Z,80.03
2022-09-01T04:57:50.365Z,79.37
2022-09-01T05:02:54.288Z,79.25
2022-09-01T05:07:56.145Z,79.21
2022-09-01T05:13:01.458Z,79.52
2022-09-01T05:18:03.587Z,79.28
2022-09-01T05:23:05.336Z,79.35
2022-09-01T05:28:08.513Z,70.99
2022-09-01T05:33:10.909Z,65.60
2022-09-01T05:38:12.911Z,62.24
2022-09-01T05:43:16.077Z,60.81
2022-09-01T05:48:17.763Z,59.76
2022-09-01T05:53:20.094Z,57.25
2022-09-01T05:59:22.039Z,54.74
2022-09-01T06:03:49.661Z,53.68
2022-09-01T06:08:52.429Z,55.30
2022-09-01T06:13:55.750Z,56.88
2022-09-01T06:18:57.660Z,62.21
2022-09-01T06:23:59.338Z,64.85
2022-09-01T06:29:06.223Z,67.41
2022-09-01T06:34:10.709Z,67.53
2022-09-01T06:39:12.827Z,67.95
2022-09-01T06:44:16.356Z,67.61
2022-09-01T06:49:18.119Z,66.77
2022-09-01T06:54:21.287Z,67.07
2022-09-01T06:59:34.457Z,66.04
2022-09-01T07:04:36.473Z,65.99
2022-09-01T07:20:26.460Z,61.93
2022-09-01T07:25:35.736Z,61.88
2022-09-01T07:30:52.807Z,60.56
2022-09-01T07:46:40.117Z,59.34
2022-09-01T07:51:41.936Z,58.43
2022-09-01T07:56:43.669Z,58.00
2022-09-01T08:01:47.202Z,56.68
2022-09-01T08:06:49.387Z,55.33
2022-09-01T08:12:01.701Z,54.20
2022-09-01T08:22:27.875Z,52.77
2022-09-01T08:27:29.589Z,52.84
2022-09-01T08:32:33.201Z,52.28
2022-09-01T08:37:35.357Z,51.05
2022-09-01T08:42:50.137Z,49.77
2022-09-01T08:48:50.983Z,48.60
2022-09-01T08:53:27.974Z,45.74
2022-09-01T08:58:32.399Z,47.57
2022-09-01T09:03:45.747Z,48.20
2022-09-01T09:08:59.310Z,46.26
2022-09-01T09:14:08.175Z,45.17
2022-09-01T09:19:19.499Z,38.62
2022-09-01T09:24:27.241Z,34.07
2022-09-01T09:29:36.491Z,32.62
2022-09-01T09:34:42.533Z,33.10
2022-09-01T09:39:44.574Z,31.78
2022-09-01T09:44:49.729Z,30.25
2022-09-01T09:50:22.091Z,31.04
2022-09-01T09:55:27.097Z,28.60
2022-09-01T10:00:32.122Z,27.11
2022-09-01T10:05:39.922Z,29.39
2022-09-01T10:10:44.822Z,28.49
2022-09-01T10:16:03.705Z,28.10
2022-09-01T10:21:15.463Z,25.42
2022-09-01T10:26:22.798Z,26.07
2022-09-01T10:31:29.548Z,27.70
2022-09-01T10:36:36.711Z,29.05
2022-09-01T10:41:59.599Z,29.28
2022-09-01T10:47:15.017Z,30.54
2022-09-01T10:52:55.404Z,36.17
2022-09-01T10:59:29.988Z,34.39
2022-09-01T11:03:42.127Z,37.65
2022-09-01T11:09:01.259Z,40.73
2022-09-01T11:14:18.209Z,40.32
2022-09-01T11:19:38.970Z,41.23
2022-09-01T11:25:12.453Z,39.67
2022-09-01T11:30:21.666Z,40.07
2022-09-01T11:35:27.716Z,35.08
2022-09-01T11:40:32.704Z,33.72
2022-09-01T11:45:45.080Z,35.63
2022-09-01T11:50:58.228Z,36.50
2022-09-01T11:56:13.616Z,35.88
2022-09-01T12:01:20.144Z,35.73
2022-09-01T12:06:24.735Z,35.64
2022-09-01T12:11:30.165Z,36.71
2022-09-01T12:16:35.843Z,37.38
2022-09-01T12:21:40.612Z,38.22
2022-09-01T12:26:42.865Z,36.67
2022-09-01T12:31:48.776Z,37.34
2022-09-01T12:37:03.467Z,38.50
2022-09-01T12:42:12.547Z,37.44
2022-09-01T12:47:46.830Z,35.77
2022-09-01T12:52:52.453Z,37.23
2022-09-01T12:57:57.136Z,36.88
2022-09-01T13:03:12.183Z,35.92
2022-09-01T13:08:18.375Z,36.33
2022-09-01T13:13:21.830Z,36.06
2022-09-01T13:18:26.089Z,35.93
2022-09-01T13:23:27.771Z,38.05
2022-09-01T13:28:29.911Z,39.22
2022-09-01T13:34:09.338Z,38.63
2022-09-01T13:38:58.670Z,38.61
2022-09-01T13:44:00.437Z,37.43
2022-09-01T13:49:04.981Z,37.66
2022-09-01T13:54:25.616Z,38.67
2022-09-01T13:59:27.679Z,37.90
2022-09-01T14:04:31.276Z,38.06
2022-09-01T14:09:33.610Z,37.83
2022-09-01T14:19:58.358Z,37.84
2022-09-01T14:25:00.336Z,38.46
2022-09-01T14:30:08.709Z,36.61
2022-09-01T14:35:29.573Z,36.71
2022-09-01T14:40:44.190Z,35.93
2022-09-01T14:46:08.506Z,35.90
2022-09-01T14:52:10.428Z,37.75
2022-09-01T15:02:14.724Z,38.06
2022-09-01T15:07:29.543Z,36.16
2022-09-01T15:12:36.107Z,37.38
2022-09-01T15:17:39.093Z,37.91
2022-09-01T15:22:53.579Z,37.07
2022-09-01T15:28:07.646Z,37.93
2022-09-01T15:33:15.775Z,38.42
2022-09-01T15:38:27.159Z,37.82
2022-09-01T15:43:32.999Z,37.84
2022-09-01T15:48:36.037Z,38.46
2022-09-01T15:53:44.733Z,38.65
2022-09-01T15:59:02.277Z,39.12
2022-09-01T16:04:13.613Z,39.44
2022-09-01T16:09:24.497Z,39.49
2022-09-01T16:14:38.984Z,39.46
2022-09-01T16:19:55.961Z,39.04
2022-09-01T16:25:06.891Z,39.09
2022-09-01T16:30:16.117Z,39.81
2022-09-01T16:35:29.851Z,40.23
2022-09-01T16:40:46.576Z,39.89
2022-09-01T16:46:06.099Z,40.21
2022-09-01T16:51:23.329Z,40.45
2022-09-01T16:56:37.097Z,42.36
2022-09-01T17:01:55.086Z,43.03
2022-09-01T17:07:13.938Z,43.91
2022-09-01T17:12:41.194Z,44.71
2022-09-01T17:18:03.994Z,45.20
2022-09-01T17:23:13.503Z,45.36
2022-09-01T17:28:35.140Z,46.22
2022-09-01T17:34:01.751Z,47.28
2022-09-01T17:39:29.362Z,48.71
2022-09-01T17:44:43.623Z,49.54
2022-09-01T17:50:04.437Z,50.14
2022-09-01T17:55:31.441Z,51.10
2022-09-01T18:00:45.504Z,50.72
2022-09-01T18:06:02.575Z,51.33
2022-09-01T18:11:12.428Z,53.42
2022-09-01T18:16:18.984Z,52.60
2022-09-01T18:21:30.355Z,54.14
2022-09-01T18:26:40.240Z,55.15
2022-09-01T18:31:58.178Z,56.11
2022-09-01T18:37:12.060Z,57.92
2022-09-01T18:42:25.399Z,59.09
2022-09-01T18:48:03.365Z,60.54
2022-09-01T18:53:24.137Z,60.72
2022-09-01T18:58:51.507Z,61.32
2022-09-01T19:04:02.116Z,61.47
2022-09-01T19:09:13.422Z,61.83
2022-09-01T19:14:27.779Z,60.43
2022-09-01T19:19:40.606Z,58.70
2022-09-01T19:24:46.972Z,60.10
2022-09-01T19:29:52.286Z,62.46
2022-09-01T19:34:58.640Z,63.69
2022-09-01T19:40:00.345Z,66.17
2022-09-01T19:45:08.660Z,66.80
2022-09-01T19:50:17.828Z,67.28
2022-09-01T19:55:28.005Z,68.21
2022-09-01T20:00:41.155Z,68.69
2022-09-01T20:05:49.373Z,68.69
2022-09-01T20:10:59.727Z,67.92
2022-09-01T20:16:08.457Z,66.97
2022-09-01T20:21:14.841Z,68.65
2022-09-01T20:26:25.951Z,69.09
2022-09-01T20:31:31.868Z,70.00
2022-09-01T20:36:39.632Z,71.25
2022-09-01T20:41:45.345Z,71.66
2022-09-01T20:46:47.651Z,72.58
2022-09-01T20:51:57.747Z,73.19
2022-09-01T20:57:11.150Z,74.15
2022-09-01T21:02:28.451Z,74.10
2022-09-01T21:07:36.248Z,74.04
2022-09-01T21:12:42.640Z,74.15
2022-09-01T21:17:52.193Z,74.27
2022-09-01T21:22:56.027Z,74.61
2022-09-01T21:28:00.313Z,75.43
2022-09-01T21:33:02.761Z,75.37
2022-09-01T21:38:06.300Z,75.76
2022-09-01T21:43:14.465Z,76.50
2022-09-01T21:48:17.197Z,77.14
2022-09-01T21:53:22.364Z,76.96
2022-09-01T21:58:25.367Z,77.54
2022-09-01T22:03:29.594Z,78.15
2022-09-01T22:08:34.624Z,78.36
2022-09-01T22:13:39.113Z,78.76
2022-09-01T22:18:43.739Z,78.75
2022-09-01T22:23:48.617Z,79.07
2022-09-01T22:28:51.223Z,79.36
2022-09-01T22:33:53.728Z,79.41
2022-09-01T22:38:59.826Z,78.85
2022-09-01T22:44:03.268Z,78.26
2022-09-01T22:49:06.301Z,79.55
2022-09-01T22:54:10.400Z,79.34
2022-09-01T22:59:14.616Z,80.14
2022-09-01T23:04:18.052Z,80.30
2022-09-01T23:09:21.797Z,80.61
2022-09-01T23:14:23.537Z,81.37
2022-09-01T23:19:26.044Z,81.55
2022-09-01T23:24:29.532Z,81.77
2022-09-01T23:29:31.679Z,82.26
2022-09-01T23:34:33.990Z,82.43
2022-09-01T23:39:37.656Z,82.84
2022-09-01T23:44:40.165Z,83.00
2022-09-01T23:49:42.561Z,82.63
2022-09-01T23:54:46.074Z,83.38
2022-09-01T23:59:48.273Z,83.27
